createdAt,value
2022-09-28T00:00:15.597Z,8.45
2022-09-28T00:01:15.576Z,8.44
2022-09-28T00:02:15.991Z,8.45
2022-09-28T00:03:15.556Z,8.45
2022-09-28T00:04:15.536Z,8.45
2022-09-28T00:05:15.539Z,8.44
2022-09-28T00:06:15.528Z,8.45
2022-09-28T00:07:15.545Z,8.48
2022-09-28T00:08:15.541Z,8.47
2022-09-28T00:09:15.782Z,8.47
2022-09-28T00:10:15.472Z,8.47
2022-09-28T00:11:15.658Z,8.45
2022-09-28T00:12:15.481Z,8.47
2022-09-28T00:13:15.438Z,8.44
2022-09-28T00:14:15.470Z,8.44
2022-09-28T00:15:15.417Z,8.42
2022-09-28T00:16:15.810Z,8.42
2022-09-28T00:17:15.397Z,8.42
2022-09-28T00:18:15.392Z,8.42
2022-09-28T00:19:15.506Z,8.44
2022-09-28T00:20:15.397Z,8.44
2022-09-28T00:21:16.237Z,8.44
2022-09-28T00:22:15.664Z,8.42
2022-09-28T00:23:15.341Z,8.42
2022-09-28T00:24:15.439Z,8.45
2022-09-28T00:25:15.334Z,8.40
2022-09-28T00:26:15.347Z,8.42
2022-09-28T00:27:15.291Z,8.42
2022-09-28T00:28:15.322Z,8.42
2022-09-28T00:29:15.373Z,8.40
2022-09-28T00:30:15.270Z,8.44
2022-09-28T00:31:15.280Z,8.42
2022-09-28T00:32:15.307Z,8.39
2022-09-28T00:33:15.234Z,8.39
2022-09-28T00:34:15.227Z,8.42
2022-09-28T00:35:15.231Z,8.40
2022-09-28T00:36:15.198Z,8.40
2022-09-28T00:37:15.203Z,8.40
2022-09-28T00:38:15.237Z,8.39
2022-09-28T00:39:15.206Z,8.39
2022-09-28T00:40:15.536Z,8.40
2022-09-28T00:41:15.171Z,8.39
2022-09-28T00:42:15.141Z,8.39
2022-09-28T00:43:15.153Z,8.37
2022-09-28T00:44:15.157Z,8.37
2022-09-28T00:45:15.112Z,8.37
2022-09-28T00:46:15.198Z,8.37
2022-09-28T00:47:15.363Z,8.36
2022-09-28T00:48:15.075Z,8.36
2022-09-28T00:49:15.088Z,8.35
2022-09-28T00:50:15.101Z,8.36
2022-09-28T00:51:15.072Z,8.33
2022-09-28T00:52:15.031Z,8.33
2022-09-28T00:53:15.021Z,8.30
2022-09-28T00:54:15.299Z,8.33
2022-09-28T00:55:15.004Z,8.33
2022-09-28T00:56:15.055Z,8.33
2022-09-28T00:57:14.981Z,8.33
2022-09-28T00:58:14.969Z,8.33
2022-09-28T00:59:15.065Z,8.35
2022-09-28T01:00:14.948Z,8.36
2022-09-28T01:01:15.273Z,8.36
2022-09-28T01:02:15.020Z,8.36
2022-09-28T01:03:14.911Z,8.36
2022-09-28T01:04:14.912Z,8.36
2022-09-28T01:05:14.892Z,8.35
2022-09-28T01:06:14.883Z,8.37
2022-09-28T01:07:14.902Z,8.35
2022-09-28T01:08:15.186Z,8.36
2022-09-28T01:09:14.881Z,8.36
2022-09-28T01:10:14.850Z,8.36
2022-09-28T01:11:14.828Z,8.36
2022-09-28T01:12:14.820Z,8.35
2022-09-28T01:13:14.806Z,8.35
2022-09-28T01:14:14.829Z,8.33
2022-09-28T01:15:14.782Z,8.33
2022-09-28T01:16:14.919Z,8.33
2022-09-28T01:17:14.768Z,8.30
2022-09-28T01:18:14.755Z,8.30
2022-09-28T01:19:14.788Z,8.29
2022-09-28T01:20:14.779Z,8.29
2022-09-28T01:21:14.998Z,8.29
2022-09-28T01:22:14.717Z,8.29
2022-09-28T01:23:14.715Z,8.29
2022-09-28T01:24:14.692Z,8.29
2022-09-28T01:25:14.678Z,8.29
2022-09-28T01:26:14.697Z,8.29
2022-09-28T01:27:14.670Z,8.28
2022-09-28T01:28:14.947Z,8.28
2022-09-28T01:29:14.654Z,8.29
2022-09-28T01:30:14.651Z,8.29
2022-09-28T01:31:14.712Z,8.29
2022-09-28T01:32:14.656Z,8.28
2022-09-28T01:33:14.594Z,8.29
2022-09-28T01:34:14.594Z,8.28
2022-09-28T01:35:14.857Z,8.28
2022-09-28T01:36:14.569Z,8.29
2022-09-28T01:37:14.564Z,8.29
2022-09-28T01:38:14.570Z,8.30
2022-09-28T01:39:14.656Z,8.29
2022-09-28T01:40:14.650Z,8.30
2022-09-28T01:41:14.517Z,8.28
2022-09-28T01:42:14.838Z,8.29
2022-09-28T01:43:14.503Z,8.29
2022-09-28T01:44:14.523Z,8.29
2022-09-28T01:45:14.466Z,8.29
2022-09-28T01:46:14.559Z,8.30
2022-09-28T01:47:14.446Z,8.30
2022-09-28T01:48:14.439Z,8.33
2022-09-28T01:49:14.932Z,8.32
2022-09-28T01:50:14.493Z,8.33
2022-09-28T01:51:14.405Z,8.33
2022-09-28T01:52:14.397Z,8.32
2022-09-28T01:53:14.382Z,8.32
2022-09-28T01:54:14.406Z,8.33
2022-09-28T01:55:14.356Z,8.32
2022-09-28T01:56:14.682Z,8.32
2022-09-28T01:57:14.357Z,8.29
2022-09-28T01:58:14.337Z,8.28
2022-09-28T01:59:14.504Z,8.28
2022-09-28T02:00:14.317Z,8.28
2022-09-28T02:01:14.363Z,8.26
2022-09-28T02:02:14.397Z,8.25
2022-09-28T02:03:14.607Z,8.25
2022-09-28T02:04:14.269Z,8.25
2022-09-28T02:05:14.260Z,8.21
2022-09-28T02:06:14.264Z,8.21
2022-09-28T02:07:14.274Z,8.20
2022-09-28T02:08:14.251Z,8.21
2022-09-28T02:09:14.299Z,8.22
2022-09-28T02:10:14.497Z,8.20
2022-09-28T02:11:14.200Z,8.22
2022-09-28T02:12:14.175Z,8.22
2022-09-28T02:13:14.195Z,8.22
2022-09-28T02:14:14.191Z,8.22
2022-09-28T02:15:14.166Z,8.21
2022-09-28T02:16:14.184Z,8.20
2022-09-28T02:17:14.436Z,8.20
2022-09-28T02:18:14.117Z,8.18
2022-09-28T02:19:14.236Z,8.20
2022-09-28T02:20:14.135Z,8.18
2022-09-28T02:21:14.098Z,8.18
2022-09-28T02:22:14.073Z,8.18
2022-09-28T02:23:14.066Z,8.20
2022-09-28T02:24:17.199Z,8.17
2022-09-28T02:25:14.190Z,8.18
2022-09-28T02:26:14.102Z,8.17
2022-09-28T02:27:14.117Z,8.15
2022-09-28T02:28:14.009Z,8.15
2022-09-28T02:29:14.125Z,8.14
2022-09-28T02:30:13.994Z,8.15
2022-09-28T02:31:14.041Z,8.15
2022-09-28T02:32:14.028Z,8.15
2022-09-28T02:33:13.968Z,8.17
2022-09-28T02:34:13.984Z,8.17
2022-09-28T02:35:13.977Z,8.15
2022-09-28T02:36:13.960Z,8.14
2022-09-28T02:37:14.228Z,8.12
2022-09-28T02:38:13.937Z,8.14
2022-09-28T02:39:14.026Z,8.12
2022-09-28T02:40:13.886Z,8.12
2022-09-28T02:41:13.897Z,8.14
2022-09-28T02:42:13.871Z,8.15
2022-09-28T02:43:13.880Z,8.14
2022-09-28T02:44:13.873Z,8.12
2022-09-28T02:45:13.837Z,8.12
2022-09-28T02:46:13.889Z,8.12
2022-09-28T02:47:13.818Z,8.12
2022-09-28T02:48:13.808Z,8.12
2022-09-28T02:49:22.308Z,8.11
2022-09-28T02:50:13.848Z,8.12
2022-09-28T02:51:13.774Z,8.14
2022-09-28T02:52:13.796Z,8.14
2022-09-28T02:53:13.770Z,8.15
2022-09-28T02:54:18.512Z,8.14
2022-09-28T02:55:13.775Z,8.14
2022-09-28T02:56:13.759Z,8.15
2022-09-28T02:57:13.713Z,8.14
2022-09-28T02:58:13.706Z,8.14
2022-09-28T02:59:13.801Z,8.14
2022-09-28T03:00:13.681Z,8.12
2022-09-28T03:01:14.041Z,8.11
2022-09-28T03:02:13.761Z,8.12
2022-09-28T03:03:13.681Z,8.14
2022-09-28T03:04:13.637Z,8.15
2022-09-28T03:05:13.631Z,8.15
2022-09-28T03:06:13.629Z,8.15
2022-09-28T03:07:13.626Z,8.17
2022-09-28T03:08:13.916Z,8.18
2022-09-28T03:09:13.651Z,8.17
2022-09-28T03:10:13.574Z,8.15
2022-09-28T03:11:13.567Z,8.15
2022-09-28T03:12:13.551Z,8.15
2022-09-28T03:13:13.548Z,8.17
2022-09-28T03:14:13.571Z,8.15
2022-09-28T03:15:13.849Z,8.15
2022-09-28T03:16:13.649Z,8.17
2022-09-28T03:17:13.505Z,8.14
2022-09-28T03:18:13.549Z,8.15
2022-09-28T03:19:13.605Z,8.17
2022-09-28T03:20:13.531Z,8.18
2022-09-28T03:21:13.530Z,8.15
2022-09-28T03:22:13.771Z,8.15
2022-09-28T03:23:24.450Z,8.15
2022-09-28T03:24:13.469Z,8.15
2022-09-28T03:25:13.450Z,8.15
2022-09-28T03:26:13.532Z,8.15
2022-09-28T03:27:13.475Z,8.15
2022-09-28T03:28:13.425Z,8.14
2022-09-28T03:29:13.806Z,8.17
2022-09-28T03:30:13.441Z,8.15
2022-09-28T03:31:13.451Z,8.15
2022-09-28T03:32:13.419Z,8.17
2022-09-28T03:33:13.381Z,8.14
2022-09-28T03:34:13.394Z,8.17
2022-09-28T03:35:13.345Z,8.12
2022-09-28T03:36:13.646Z,8.15
2022-09-28T03:37:13.335Z,8.15
2022-09-28T03:38:13.360Z,8.17
2022-09-28T03:39:13.273Z,8.17
2022-09-28T03:40:13.273Z,8.15
2022-09-28T03:41:13.265Z,8.17
2022-09-28T03:42:13.238Z,8.18
2022-09-28T03:43:13.527Z,8.17
2022-09-28T03:44:13.256Z,8.15
2022-09-28T03:45:13.206Z,8.14
2022-09-28T03:46:13.230Z,8.14
2022-09-28T03:47:13.198Z,8.15
2022-09-28T03:48:13.190Z,8.18
2022-09-28T03:49:13.174Z,8.17
2022-09-28T03:50:13.490Z,8.18
2022-09-28T03:51:13.148Z,8.17
2022-09-28T03:52:13.135Z,8.17
2022-09-28T03:53:13.130Z,8.15
2022-09-28T03:54:13.134Z,8.12
2022-09-28T03:55:13.118Z,8.14
2022-09-28T03:56:13.139Z,8.14
2022-09-28T03:57:13.376Z,8.14
2022-09-28T03:58:13.075Z,8.12
2022-09-28T03:59:13.191Z,8.15
2022-09-28T04:00:13.045Z,8.11
2022-09-28T04:01:16.959Z,8.14
2022-09-28T04:02:13.112Z,8.12
2022-09-28T04:03:13.056Z,8.12
2022-09-28T04:04:13.359Z,8.14
2022-09-28T04:05:13.013Z,8.14
2022-09-28T04:06:12.993Z,8.14
2022-09-28T04:07:12.983Z,8.12
2022-09-28T04:08:13.013Z,8.11
2022-09-28T04:09:12.978Z,8.12
2022-09-28T04:10:13.003Z,8.11
2022-09-28T04:11:13.232Z,8.11
2022-09-28T04:12:12.927Z,8.10
2022-09-28T04:13:12.966Z,8.08
2022-09-28T04:14:12.959Z,8.08
2022-09-28T04:15:12.893Z,8.08
2022-09-28T04:16:13.060Z,8.08
2022-09-28T04:17:12.878Z,8.10
2022-09-28T04:18:13.134Z,8.08
2022-09-28T04:19:12.861Z,8.08
2022-09-28T04:20:12.903Z,8.07
2022-09-28T04:21:12.855Z,8.08
2022-09-28T04:22:12.847Z,8.07
2022-09-28T04:23:12.832Z,8.07
2022-09-28T04:24:12.800Z,8.07
2022-09-28T04:25:13.074Z,8.07
2022-09-28T04:26:12.815Z,8.07
2022-09-28T04:27:12.784Z,8.04
2022-09-28T04:28:12.762Z,8.04
2022-09-28T04:29:12.844Z,8.04
2022-09-28T04:30:12.748Z,8.08
2022-09-28T04:31:12.788Z,8.07
2022-09-28T04:32:13.054Z,8.08
2022-09-28T04:33:12.714Z,8.08
2022-09-28T04:34:12.728Z,8.08
2022-09-28T04:35:12.692Z,8.10
2022-09-28T04:36:12.669Z,8.07
2022-09-28T04:37:12.706Z,8.07
2022-09-28T04:38:12.692Z,8.04
2022-09-28T04:39:12.645Z,8.04
2022-09-28T04:40:12.637Z,8.03
2022-09-28T04:41:12.635Z,8.00
2022-09-28T04:42:12.622Z,8.00
2022-09-28T04:43:12.636Z,7.99
2022-09-28T04:44:12.669Z,8.00
2022-09-28T04:45:12.874Z,8.00
2022-09-28T04:46:12.746Z,8.02
2022-09-28T04:47:12.573Z,7.99
2022-09-28T04:48:12.565Z,7.97
2022-09-28T04:49:12.550Z,7.99
2022-09-28T04:50:12.575Z,7.97
2022-09-28T04:51:12.528Z,7.99
2022-09-28T04:52:18.038Z,7.99
2022-09-28T04:53:12.583Z,7.97
2022-09-28T04:54:12.486Z,7.96
2022-09-28T04:55:12.479Z,7.97
2022-09-28T04:56:12.506Z,7.97
2022-09-28T04:57:12.466Z,7.96
2022-09-28T04:58:12.449Z,7.96
2022-09-28T04:59:12.900Z,7.96
2022-09-28T05:00:12.432Z,7.96
2022-09-28T05:01:12.500Z,7.94
2022-09-28T05:02:12.527Z,7.97
2022-09-28T05:03:12.427Z,7.96
2022-09-28T05:04:12.395Z,7.96
2022-09-28T05:05:12.403Z,7.94
2022-09-28T05:06:12.418Z,7.99
2022-09-28T05:07:13.238Z,7.97
2022-09-28T05:08:12.375Z,7.97
2022-09-28T05:09:12.362Z,7.96
2022-09-28T05:10:12.344Z,7.97
2022-09-28T05:11:12.320Z,7.97
2022-09-28T05:12:12.319Z,7.96
2022-09-28T05:13:12.293Z,7.99
2022-09-28T05:14:12.318Z,7.99
2022-09-28T05:15:14.793Z,7.99
2022-09-28T05:16:12.324Z,7.99
2022-09-28T05:17:12.262Z,7.97
2022-09-28T05:18:12.563Z,7.99
2022-09-28T05:19:12.246Z,7.97
2022-09-28T05:20:12.278Z,7.97
2022-09-28T05:21:12.224Z,7.99
2022-09-28T05:22:12.202Z,7.97
2022-09-28T05:23:12.191Z,7.97
2022-09-28T05:24:12.192Z,7.99
2022-09-28T05:25:12.164Z,7.97
2022-09-28T05:26:12.203Z,7.97
2022-09-28T05:27:12.186Z,7.97
2022-09-28T05:28:12.154Z,7.99
2022-09-28T05:29:12.129Z,7.99
2022-09-28T05:30:12.413Z,8.00
2022-09-28T05:31:12.133Z,8.00
2022-09-28T05:32:12.210Z,7.99
2022-09-28T05:33:12.093Z,7.99
2022-09-28T05:34:12.092Z,7.99
2022-09-28T05:35:12.078Z,7.97
2022-09-28T05:36:12.046Z,7.99
2022-09-28T05:37:12.319Z,7.97
2022-09-28T05:38:12.078Z,7.99
2022-09-28T05:39:12.037Z,7.99
2022-09-28T05:40:12.023Z,8.02
2022-09-28T05:41:12.014Z,8.02
2022-09-28T05:42:12.003Z,8.03
2022-09-28T05:43:11.975Z,8.03
2022-09-28T05:44:12.292Z,8.03
2022-09-28T05:45:12.078Z,8.04
2022-09-28T05:46:11.992Z,8.07
2022-09-28T05:47:11.944Z,8.08
2022-09-28T05:48:11.965Z,8.04
2022-09-28T05:49:11.943Z,8.07
2022-09-28T05:50:11.964Z,8.04
2022-09-28T05:51:12.172Z,8.08
2022-09-28T05:52:11.883Z,8.08
2022-09-28T05:53:11.952Z,8.07
2022-09-28T05:54:11.869Z,8.07
2022-09-28T05:55:11.898Z,8.08
2022-09-28T05:56:11.868Z,8.11
2022-09-28T05:57:11.826Z,8.12
2022-09-28T05:58:12.121Z,8.10
2022-09-28T05:59:11.817Z,8.11
2022-09-28T06:00:11.820Z,8.11
2022-09-28T06:01:11.887Z,8.11
2022-09-28T06:02:11.856Z,8.10
2022-09-28T06:03:11.781Z,8.11
2022-09-28T06:04:11.757Z,8.10
2022-09-28T06:05:12.039Z,8.14
2022-09-28T06:06:11.751Z,8.14
2022-09-28T06:07:11.737Z,8.15
2022-09-28T06:08:11.763Z,8.14
2022-09-28T06:09:11.751Z,8.11
2022-09-28T06:10:11.724Z,8.12
2022-09-28T06:11:11.710Z,8.10
2022-09-28T06:12:11.972Z,8.12
2022-09-28T06:13:11.692Z,8.14
2022-09-28T06:14:11.729Z,8.14
2022-09-28T06:15:11.663Z,8.15
2022-09-28T06:16:11.695Z,8.18
2022-09-28T06:17:11.621Z,8.18
2022-09-28T06:18:11.652Z,8.17
2022-09-28T06:19:12.924Z,8.17
2022-09-28T06:20:11.641Z,8.18
2022-09-28T06:21:11.605Z,8.20
2022-09-28T06:22:11.588Z,8.21
2022-09-28T06:23:11.592Z,8.22
2022-09-28T06:24:11.550Z,8.22
2022-09-28T06:25:11.542Z,8.21
2022-09-28T06:26:11.840Z,8.22
2022-09-28T06:27:11.541Z,8.21
2022-09-28T06:28:11.511Z,8.25
2022-09-28T06:29:13.711Z,8.25
2022-09-28T06:30:11.527Z,8.25
2022-09-28T06:31:11.595Z,8.26
2022-09-28T06:32:11.541Z,8.29
2022-09-28T06:33:11.799Z,8.30
2022-09-28T06:34:11.489Z,8.33
2022-09-28T06:35:11.440Z,8.36
2022-09-28T06:36:11.488Z,8.37
2022-09-28T06:37:11.491Z,8.40
2022-09-28T06:38:11.436Z,8.44
2022-09-28T06:39:11.404Z,8.45
2022-09-28T06:40:11.670Z,8.47
2022-09-28T06:41:11.396Z,8.45
2022-09-28T06:42:11.374Z,8.48
2022-09-28T06:43:11.372Z,8.50
2022-09-28T06:44:11.416Z,8.50
2022-09-28T06:45:11.362Z,8.51
2022-09-28T06:46:11.388Z,8.53
2022-09-28T06:47:11.628Z,8.51
2022-09-28T06:48:11.333Z,8.51
2022-09-28T06:49:12.204Z,8.53
2022-09-28T06:50:11.354Z,8.51
2022-09-28T06:51:11.310Z,8.53
2022-09-28T06:52:11.312Z,8.53
2022-09-28T06:53:11.304Z,8.54
2022-09-28T06:54:11.666Z,8.54
2022-09-28T06:55:11.233Z,8.51
2022-09-28T06:56:11.275Z,8.50
2022-09-28T06:57:11.213Z,8.50
2022-09-28T06:58:11.278Z,8.50
2022-09-28T06:59:11.250Z,8.51
2022-09-28T07:00:11.228Z,8.51
2022-09-28T07:01:11.500Z,8.51
2022-09-28T07:02:11.261Z,8.50
2022-09-28T07:03:11.166Z,8.50
2022-09-28T07:04:11.268Z,8.50
2022-09-28T07:05:11.168Z,8.51
2022-09-28T07:06:11.190Z,8.50
2022-09-28T07:07:11.111Z,8.48
2022-09-28T07:08:11.448Z,8.48
2022-09-28T07:09:26.418Z,8.45
2022-09-28T07:10:11.107Z,8.45
2022-09-28T07:11:11.076Z,8.47
2022-09-28T07:12:11.083Z,8.47
2022-09-28T07:13:29.891Z,8.48
2022-09-28T07:14:20.502Z,8.45
2022-09-28T07:15:11.097Z,8.47
2022-09-28T07:16:11.114Z,8.48
2022-09-28T07:17:14.007Z,8.51
2022-09-28T07:18:11.021Z,8.48
2022-09-28T07:19:10.992Z,8.51
2022-09-28T07:20:18.031Z,8.54
2022-09-28T07:21:19.490Z,8.54
2022-09-28T07:22:13.945Z,8.58
2022-09-28T07:23:18.926Z,8.62
2022-09-28T07:24:10.961Z,8.65
2022-09-28T07:25:10.915Z,8.69
2022-09-28T07:26:11.006Z,8.75
2022-09-28T07:27:11.209Z,8.81
2022-09-28T07:28:10.891Z,8.86
2022-09-28T07:29:10.878Z,8.91
2022-09-28T07:30:10.924Z,8.97
2022-09-28T07:31:11.008Z,9.09
2022-09-28T07:32:10.963Z,9.15
2022-09-28T07:33:10.836Z,9.15
2022-09-28T07:34:11.268Z,9.15
2022-09-28T07:35:10.885Z,9.15
2022-09-28T07:36:10.856Z,9.16
2022-09-28T07:37:10.811Z,9.13
2022-09-28T07:38:10.877Z,9.10
2022-09-28T07:39:10.766Z,9.10
2022-09-28T07:40:10.881Z,9.12
2022-09-28T07:41:11.073Z,9.16
2022-09-28T07:42:10.766Z,9.20
2022-09-28T07:43:10.768Z,9.24
2022-09-28T07:44:10.901Z,9.25
2022-09-28T07:45:10.800Z,9.25
2022-09-28T07:46:10.780Z,9.25
2022-09-28T07:47:10.728Z,9.24
2022-09-28T07:49:12.360Z,9.27
2022-09-28T07:50:10.851Z,9.27
2022-09-28T07:51:10.697Z,9.28
2022-09-28T07:52:10.704Z,9.30
2022-09-28T07:53:10.707Z,9.28
2022-09-28T07:54:10.615Z,9.30
2022-09-28T07:55:10.864Z,9.32
2022-09-28T07:56:10.653Z,9.38
2022-09-28T07:57:10.568Z,9.39
2022-09-28T07:58:10.583Z,9.40
2022-09-28T07:59:10.639Z,9.38
2022-09-28T08:00:10.595Z,9.39
2022-09-28T08:01:10.745Z,9.45
2022-09-28T08:02:10.953Z,9.49
2022-09-28T08:03:10.501Z,9.52
2022-09-28T08:04:10.557Z,9.57
2022-09-28T08:05:10.571Z,9.58
2022-09-28T08:06:10.520Z,9.60
2022-09-28T08:07:10.559Z,9.60
2022-09-28T08:08:10.532Z,9.63
2022-09-28T08:09:10.757Z,9.64
2022-09-28T08:10:10.651Z,9.67
2022-09-28T08:11:10.478Z,9.67
2022-09-28T08:12:10.546Z,9.68
2022-09-28T08:13:10.424Z,9.67
2022-09-28T08:14:10.520Z,9.66
2022-09-28T08:15:10.488Z,9.61
2022-09-28T08:16:10.732Z,9.58
2022-09-28T08:17:10.433Z,9.58
2022-09-28T08:18:10.396Z,9.56
2022-09-28T08:19:10.523Z,9.56
2022-09-28T08:20:10.490Z,9.52
2022-09-28T08:21:10.371Z,9.52
2022-09-28T08:22:10.323Z,9.49
2022-09-28T08:23:10.609Z,9.52
2022-09-28T08:24:10.433Z,9.53
2022-09-28T08:25:10.297Z,9.57
2022-09-28T08:26:15.195Z,9.60
2022-09-28T08:27:10.317Z,9.58
2022-09-28T08:28:10.250Z,9.64
2022-09-28T08:29:10.232Z,9.66
2022-09-28T08:30:10.400Z,9.68
2022-09-28T08:31:10.299Z,9.70
2022-09-28T08:32:10.283Z,9.75
2022-09-28T08:33:10.322Z,9.78
2022-09-28T08:34:10.343Z,9.81
2022-09-28T08:35:10.545Z,9.83
2022-09-28T08:36:10.197Z,9.79
2022-09-28T08:37:10.234Z,9.81
2022-09-28T08:38:10.202Z,9.79
2022-09-28T08:39:10.200Z,9.82
2022-09-28T08:40:10.235Z,9.83
2022-09-28T08:41:10.166Z,9.88
2022-09-28T08:42:10.109Z,9.93
2022-09-28T08:43:10.114Z,10.01
2022-09-28T08:44:10.264Z,10.06
2022-09-28T08:45:10.129Z,10.18
2022-09-28T08:46:10.174Z,10.24
2022-09-28T08:47:10.366Z,10.26
2022-09-28T08:48:10.091Z,10.25
2022-09-28T08:49:26.287Z,10.25
2022-09-28T08:50:10.264Z,10.24
2022-09-28T08:51:10.031Z,10.26
2022-09-28T08:52:10.045Z,10.28
2022-09-28T08:53:10.087Z,10.34
2022-09-28T08:54:11.881Z,10.36
2022-09-28T08:55:09.974Z,10.37
2022-09-28T08:56:10.052Z,10.39
2022-09-28T08:57:09.986Z,10.42
2022-09-28T08:58:10.013Z,10.52
2022-09-28T08:59:09.950Z,10.56
2022-09-28T09:00:11.839Z,10.65
2022-09-28T09:01:10.277Z,10.73
2022-09-28T09:02:10.030Z,10.86
2022-09-28T09:03:09.909Z,11.03
2022-09-28T09:04:09.887Z,11.14
2022-09-28T09:05:09.916Z,11.25
2022-09-28T09:06:09.887Z,11.27
2022-09-28T09:07:09.901Z,11.25
2022-09-28T09:08:09.894Z,11.10
2022-09-28T09:09:09.803Z,11.02
2022-09-28T09:10:10.119Z,10.83
2022-09-28T09:11:09.909Z,10.74
2022-09-28T09:12:09.841Z,10.68
2022-09-28T09:13:09.831Z,10.68
2022-09-28T09:14:10.171Z,10.71
2022-09-28T09:15:09.899Z,10.70
2022-09-28T09:16:09.810Z,10.70
2022-09-28T09:17:09.777Z,10.70
2022-09-28T09:18:09.792Z,10.78
2022-09-28T09:19:09.864Z,10.80
2022-09-28T09:20:09.803Z,10.84
2022-09-28T09:21:09.753Z,10.92
2022-09-28T09:22:10.060Z,10.98
2022-09-28T09:23:09.711Z,11.06
2022-09-28T09:24:09.754Z,11.10
2022-09-28T09:25:09.728Z,11.17
2022-09-28T09:26:10.216Z,11.19
2022-09-28T09:27:09.679Z,11.24
2022-09-28T09:28:09.640Z,11.34
2022-09-28T09:29:09.880Z,11.41
2022-09-28T09:30:09.625Z,11.47
2022-09-28T09:31:09.710Z,11.52
2022-09-28T09:32:09.613Z,11.65
2022-09-28T09:33:09.573Z,11.83
2022-09-28T09:34:09.608Z,12.26
2022-09-28T09:35:09.607Z,12.60
2022-09-28T09:36:09.838Z,13.09
2022-09-28T09:37:09.604Z,13.59
2022-09-28T09:38:09.542Z,14.01
2022-09-28T09:39:09.534Z,13.88
2022-09-28T09:40:09.521Z,13.80
2022-09-28T09:41:09.556Z,13.77
2022-09-28T09:42:09.554Z,13.84
2022-09-28T09:43:09.742Z,13.89
2022-09-28T09:44:09.703Z,13.87
2022-09-28T09:45:09.427Z,13.84
2022-09-28T09:46:09.445Z,13.67
2022-09-28T09:47:09.491Z,13.46
2022-09-28T09:48:09.433Z,13.37
2022-09-28T09:49:09.461Z,13.24
2022-09-28T09:50:09.529Z,13.20
2022-09-28T09:51:09.417Z,13.44
2022-09-28T09:52:09.395Z,13.76
2022-09-28T09:53:09.341Z,14.01
2022-09-28T09:54:09.424Z,14.35
2022-09-28T09:55:09.427Z,14.61
2022-09-28T09:56:09.740Z,14.95
2022-09-28T09:57:09.405Z,15.46
2022-09-28T09:58:09.351Z,15.88
2022-09-28T09:59:09.453Z,16.22
2022-09-28T10:00:09.361Z,16.31
2022-09-28T10:01:09.387Z,16.18
2022-09-28T10:02:11.780Z,16.26
2022-09-28T10:03:09.554Z,16.40
2022-09-28T10:04:09.315Z,16.22
2022-09-28T10:05:09.333Z,16.26
2022-09-28T10:06:09.315Z,16.33
2022-09-28T10:07:09.226Z,16.40
2022-09-28T10:08:09.333Z,16.42
2022-09-28T10:09:09.216Z,15.96
2022-09-28T10:10:09.638Z,15.43
2022-09-28T10:11:09.227Z,14.94
2022-09-28T10:12:09.298Z,14.65
2022-09-28T10:13:09.179Z,14.42
2022-09-28T10:14:09.260Z,14.29
2022-09-28T10:15:09.252Z,14.61
2022-09-28T10:16:09.184Z,15.05
2022-09-28T10:17:09.473Z,15.52
2022-09-28T10:18:09.159Z,15.82
2022-09-28T10:19:09.171Z,16.30
2022-09-28T10:20:09.209Z,16.52
2022-09-28T10:21:09.119Z,16.34
2022-09-28T10:22:09.120Z,16.53
2022-09-28T10:23:09.107Z,16.90
2022-09-28T10:24:09.416Z,17.11
2022-09-28T10:25:09.088Z,17.30
2022-09-28T10:26:09.161Z,17.33
2022-09-28T10:27:09.078Z,16.99
2022-09-28T10:28:09.022Z,16.92
2022-09-28T10:29:08.967Z,17.13
2022-09-28T10:30:09.125Z,17.20
2022-09-28T10:32:09.113Z,17.18
2022-09-28T10:33:09.018Z,17.47
2022-09-28T10:34:08.990Z,17.69
2022-09-28T10:35:08.946Z,17.74
2022-09-28T10:36:08.931Z,17.92
2022-09-28T10:37:09.190Z,18.06
2022-09-28T10:38:09.079Z,18.24
2022-09-28T10:39:08.863Z,18.22
2022-09-28T10:40:08.946Z,17.95
2022-09-28T10:41:08.983Z,18.06
2022-09-28T10:42:08.913Z,17.89
2022-09-28T10:43:08.861Z,18.00
2022-09-28T10:44:08.954Z,17.57
2022-09-28T10:45:08.922Z,17.17
2022-09-28T10:46:08.948Z,16.73
2022-09-28T10:47:08.867Z,16.04
2022-09-28T10:48:08.878Z,16.15
2022-09-28T10:49:09.071Z,16.48
2022-09-28T10:50:08.904Z,16.92
2022-09-28T10:51:08.776Z,17.29
2022-09-28T10:52:08.807Z,17.67
2022-09-28T10:53:08.779Z,17.99
2022-09-28T10:54:08.831Z,18.34
2022-09-28T10:55:08.743Z,18.44
2022-09-28T10:56:08.818Z,18.59
2022-09-28T10:57:13.293Z,18.94
2022-09-28T10:58:08.750Z,19.24
2022-09-28T10:59:08.799Z,19.61
2022-09-28T11:00:08.725Z,19.10
2022-09-28T11:01:09.065Z,18.55
2022-09-28T11:02:08.830Z,18.42
2022-09-28T11:03:08.714Z,18.28
2022-09-28T11:04:08.661Z,17.89
2022-09-28T11:05:08.670Z,17.55
2022-09-28T11:06:08.643Z,17.62
2022-09-28T11:07:08.632Z,17.62
2022-09-28T11:08:08.998Z,17.44
2022-09-28T11:09:08.581Z,17.84
2022-09-28T11:10:08.603Z,17.47
2022-09-28T11:11:08.633Z,16.80
2022-09-28T11:12:08.646Z,16.41
2022-09-28T11:13:08.634Z,16.01
2022-09-28T11:14:08.608Z,15.72
2022-09-28T11:15:08.807Z,15.52
2022-09-28T11:16:08.604Z,15.43
2022-09-28T11:17:08.593Z,15.30
2022-09-28T11:18:08.545Z,15.26
2022-09-28T11:19:08.510Z,15.96
2022-09-28T11:20:08.624Z,16.37
2022-09-28T11:21:11.793Z,16.75
2022-09-28T11:22:11.882Z,16.63
2022-09-28T11:23:08.399Z,16.49
2022-09-28T11:24:08.444Z,16.34
2022-09-28T11:25:08.443Z,16.12
2022-09-28T11:26:08.469Z,15.82
2022-09-28T11:27:08.390Z,15.46
2022-09-28T11:28:08.450Z,15.27
2022-09-28T11:29:08.729Z,15.15
2022-09-28T11:30:08.418Z,15.01
2022-09-28T11:31:08.472Z,14.84
2022-09-28T11:32:11.403Z,15.15
2022-09-28T11:33:08.372Z,15.96
2022-09-28T11:34:08.381Z,16.62
2022-09-28T11:35:08.317Z,17.33
2022-09-28T11:36:08.679Z,17.69
2022-09-28T11:37:08.290Z,18.10
2022-09-28T11:38:08.418Z,17.70
2022-09-28T11:39:08.334Z,17.32
2022-09-28T11:40:08.305Z,16.96
2022-09-28T11:41:08.314Z,16.73
2022-09-28T11:42:10.207Z,16.49
2022-09-28T11:43:08.326Z,16.06
2022-09-28T11:44:08.371Z,15.82
2022-09-28T11:45:08.289Z,15.66
2022-09-28T11:46:08.297Z,15.48
2022-09-28T11:47:08.259Z,15.35
2022-09-28T11:48:08.236Z,15.19
2022-09-28T11:49:08.204Z,15.06
2022-09-28T11:50:08.264Z,15.03
2022-09-28T11:51:08.192Z,15.20
2022-09-28T11:52:08.185Z,16.16
2022-09-28T11:53:08.240Z,16.53
2022-09-28T11:54:08.152Z,17.13
2022-09-28T11:55:08.225Z,17.91
2022-09-28T11:56:09.177Z,18.52
2022-09-28T11:57:08.128Z,19.13
2022-09-28T11:58:08.154Z,19.58
2022-09-28T11:59:08.182Z,19.78
2022-09-28T12:00:08.094Z,19.80
2022-09-28T12:01:08.405Z,19.43
2022-09-28T12:02:08.269Z,19.25
2022-09-28T12:03:08.326Z,18.98
2022-09-28T12:04:08.021Z,19.15
2022-09-28T12:05:08.043Z,18.36
2022-09-28T12:06:08.007Z,17.91
2022-09-28T12:07:08.062Z,17.40
2022-09-28T12:08:08.163Z,16.83
2022-09-28T12:09:08.014Z,16.49
2022-09-28T12:10:07.946Z,15.94
2022-09-28T12:11:08.112Z,15.45
2022-09-28T12:12:08.103Z,15.08
2022-09-28T12:13:08.328Z,14.74
2022-09-28T12:14:08.007Z,14.61
2022-09-28T12:15:07.980Z,14.43
2022-09-28T12:16:32.332Z,14.32
2022-09-28T12:17:08.671Z,14.28
2022-09-28T12:18:08.050Z,14.29
2022-09-28T12:19:07.994Z,14.16
2022-09-28T12:20:07.912Z,14.09
2022-09-28T12:21:07.904Z,14.04
2022-09-28T12:22:07.827Z,13.95
2022-09-28T12:23:07.818Z,13.81
2022-09-28T12:24:07.829Z,13.80
2022-09-28T12:25:08.103Z,13.76
2022-09-28T12:26:07.925Z,13.76
2022-09-28T12:27:07.819Z,13.79
2022-09-28T12:28:07.803Z,13.79
2022-09-28T12:29:07.814Z,13.71
2022-09-28T12:30:07.785Z,13.62
2022-09-28T12:31:07.822Z,13.58
2022-09-28T12:32:08.151Z,13.52
2022-09-28T12:33:07.714Z,13.46
2022-09-28T12:34:07.726Z,13.56
2022-09-28T12:35:07.817Z,13.80
2022-09-28T12:36:07.805Z,13.98
2022-09-28T12:37:07.643Z,14.06
2022-09-28T12:38:08.474Z,14.07
2022-09-28T12:39:18.974Z,14.06
2022-09-28T12:40:07.929Z,14.02
2022-09-28T12:41:07.782Z,14.01
2022-09-28T12:42:07.647Z,14.07
2022-09-28T12:43:07.626Z,14.10
2022-09-28T12:44:07.736Z,14.04
2022-09-28T12:45:07.672Z,13.95
2022-09-28T12:46:12.122Z,13.91
2022-09-28T12:47:07.702Z,13.83
2022-09-28T12:48:07.679Z,13.79
2022-09-28T12:50:37.494Z,13.80
2022-09-28T12:51:07.572Z,13.88
2022-09-28T12:52:07.559Z,13.94
2022-09-28T12:53:07.872Z,13.96
2022-09-28T12:54:07.506Z,14.04
2022-09-28T12:55:07.624Z,14.10
2022-09-28T12:56:07.563Z,14.17
2022-09-28T12:57:07.551Z,14.28
2022-09-28T12:58:07.463Z,14.38
2022-09-28T12:59:07.558Z,14.88
2022-09-28T13:00:07.777Z,15.64
2022-09-28T13:01:07.545Z,16.01
2022-09-28T13:02:07.539Z,16.09
2022-09-28T13:03:07.484Z,16.58
2022-09-28T13:04:10.342Z,16.89
2022-09-28T13:05:07.440Z,17.10
2022-09-28T13:06:07.391Z,17.04
2022-09-28T13:07:07.720Z,17.50
2022-09-28T13:08:07.424Z,18.03
2022-09-28T13:09:07.371Z,18.44
2022-09-28T13:10:07.414Z,18.80
2022-09-28T13:11:08.235Z,18.94
2022-09-28T13:12:08.131Z,19.10